Time;durP1;ratioP1;P1;durP2;ratioP2;P2;SDS_P1;SDS_P2;PMS_P1;PMS_P2;Temp;Humidity;BMP_temperature;BMP_pressure;BME280_temperature;BME280_humidity;BME280_pressure;Samples;Min_cycle;Max_cycle;Signal;HPM_P1;HPM_P2
2021/03/05 00:00:21;;;;;;;33.63;15.73;;;2.40;99.90;;;;;;5059564;28;20644;-86
2021/03/05 00:02:51;;;;;;;32.28;15.68;;;2.30;99.90;;;;;;5058902;28;20051;-87
2021/03/05 00:05:31;;;;;;;31.38;14.88;;;2.30;99.90;;;;;;5059219;28;20045;-86
2021/03/05 00:07:58;;;;;;;30.48;14.55;;;2.40;99.90;;;;;;5059813;28;20073;-85
2021/03/05 00:10:30;;;;;;;33.58;15.02;;;2.50;99.90;;;;;;5059169;28;20045;-86
2021/03/05 00:12:58;;;;;;;35.38;15.35;;;2.50;99.90;;;;;;5059053;28;20048;-86
2021/03/05 00:15:26;;;;;;;31.35;14.98;;;2.50;99.90;;;;;;5059894;28;20157;-86
2021/03/05 00:17:54;;;;;;;29.30;14.35;;;2.50;99.90;;;;;;5060188;28;20391;-86
2021/03/05 00:20:24;;;;;;;33.50;14.73;;;2.50;99.90;;;;;;5059271;28;20052;-86
2021/03/05 00:22:52;;;;;;;35.42;16.55;;;2.50;99.90;;;;;;5059076;28;20414;-86
2021/03/05 00:25:18;;;;;;;35.10;16.40;;;2.50;99.90;;;;;;5058328;28;20095;-86
2021/03/05 00:27:45;;;;;;;34.38;15.98;;;2.40;99.90;;;;;;5058577;28;20452;-87
2021/03/05 00:30:11;;;;;;;35.72;16.02;;;2.40;99.90;;;;;;5058979;28;20059;-86
2021/03/05 00:32:43;;;;;;;33.28;15.15;;;2.40;99.90;;;;;;5059309;28;20069;-86
2021/03/05 00:35:12;;;;;;;33.95;16.05;;;2.30;99.90;;;;;;5058493;28;20417;-86
2021/03/05 00:37:39;;;;;;;35.75;16.52;;;2.40;99.90;;;;;;5057994;28;20049;-86
2021/03/05 00:40:13;;;;;;;36.85;16.85;;;2.30;99.90;;;;;;5057329;28;20452;-86
2021/03/05 00:42:42;;;;;;;34.85;16.00;;;2.40;99.90;;;;;;5055943;28;20446;-86
2021/03/05 00:45:10;;;;;;;34.70;15.13;;;2.50;99.90;;;;;;5056724;28;20049;-86
2021/03/05 00:47:40;;;;;;;31.23;15.55;;;2.40;99.90;;;;;;5056019;28;20049;-86
2021/03/05 00:50:09;;;;;;;27.83;14.43;;;2.40;99.90;;;;;;5057211;28;20474;-86
2021/03/05 00:52:36;;;;;;;36.92;16.05;;;2.40;99.90;;;;;;5057206;28;20053;-86
2021/03/05 00:55:05;;;;;;;32.00;15.85;;;2.30;99.90;;;;;;5060391;28;20049;-86
2021/03/05 00:57:31;;;;;;;33.70;15.63;;;2.40;99.90;;;;;;5059139;28;20076;-86
2021/03/05 00:59:57;;;;;;;28.58;14.95;;;2.40;99.90;;;;;;5059442;28;20135;-87
2021/03/05 01:02:23;;;;;;;26.52;14.50;;;2.30;99.90;;;;;;5062217;28;20477;-86
2021/03/05 01:04:50;;;;;;;29.60;14.82;;;2.30;99.90;;;;;;5059102;28;20083;-87
2021/03/05 01:07:16;;;;;;;26.52;14.25;;;2.30;99.90;;;;;;5060534;28;20453;-86
2021/03/05 01:09:44;;;;;;;31.02;14.95;;;2.30;99.90;;;;;;5057865;28;20108;-87
2021/03/05 01:12:11;;;;;;;30.85;14.88;;;2.30;99.90;;;;;;5058967;28;20052;-86
2021/03/05 01:14:37;;;;;;;34.25;15.40;;;2.30;99.90;;;;;;5058628;28;20049;-86
2021/03/05 01:17:04;;;;;;;30.48;14.70;;;2.30;99.90;;;;;;5058853;28;20506;-87
2021/03/05 01:19:32;;;;;;;30.40;14.93;;;2.40;99.90;;;;;;5060549;28;20049;-86
2021/03/05 01:21:58;;;;;;;31.85;15.50;;;2.40;99.90;;;;;;5061435;28;20053;-87
2021/03/05 01:24:24;;;;;;;33.53;15.13;;;2.40;99.90;;;;;;5059404;28;20045;-87
2021/03/05 01:26:51;;;;;;;29.67;15.35;;;2.40;99.90;;;;;;5059441;28;20045;-87
2021/03/05 01:29:17;;;;;;;29.20;15.35;;;2.40;99.90;;;;;;5060052;28;20052;-86
2021/03/05 01:31:43;;;;;;;30.88;15.25;;;2.40;99.90;;;;;;5061111;28;20063;-87
2021/03/05 01:34:11;;;;;;;32.17;15.52;;;2.40;99.90;;;;;;5059758;28;20063;-86
2021/03/05 01:36:37;;;;;;;31.02;15.30;;;2.50;99.90;;;;;;5060945;28;20056;-87
2021/03/05 01:39:05;;;;;;;29.83;15.63;;;2.50;99.90;;;;;;5061180;28;20049;-87
2021/03/05 01:41:33;;;;;;;29.23;15.57;;;2.50;99.90;;;;;;5059514;28;20059;-87
2021/03/05 01:44:00;;;;;;;30.08;16.40;;;2.50;99.90;;;;;;5061444;28;20041;-86
2021/03/05 01:46:28;;;;;;;31.25;16.55;;;2.50;99.90;;;;;;5057169;28;20069;-86
2021/03/05 01:48:55;;;;;;;32.80;15.95;;;2.50;99.90;;;;;;5056897;28;20049;-86
2021/03/05 01:51:26;;;;;;;32.67;17.38;;;2.50;99.90;;;;;;5057429;28;20060;-86
2021/03/05 01:53:52;;;;;;;35.15;17.17;;;2.50;99.90;;;;;;5057873;28;20136;-86
2021/03/05 01:56:33;;;;;;;33.38;16.42;;;2.50;99.90;;;;;;5057356;28;20135;-86
2021/03/05 01:59:00;;;;;;;33.85;16.48;;;2.50;99.90;;;;;;5057619;28;20049;-86
2021/03/05 02:01:27;;;;;;;30.60;16.27;;;2.50;99.90;;;;;;5057198;28;20498;-86
2021/03/05 02:03:55;;;;;;;34.58;16.70;;;2.50;99.90;;;;;;5057320;28;20414;-86
2021/03/05 02:06:22;;;;;;;33.10;16.77;;;2.40;99.90;;;;;;5058144;28;20128;-86
2021/03/05 02:08:50;;;;;;;35.00;16.35;;;2.40;99.90;;;;;;5061250;28;20131;-86
2021/03/05 02:11:20;;;;;;;31.27;16.48;;;2.40;99.90;;;;;;5062706;28;20095;-86
2021/03/05 02:13:47;;;;;;;37.88;17.08;;;2.40;99.90;;;;;;5058105;28;20452;-86
2021/03/05 02:16:48;;;;;;;34.35;17.38;;;2.50;99.90;;;;;;5058061;28;20073;-86
2021/03/05 02:19:17;;;;;;;32.10;16.92;;;2.60;99.90;;;;;;5060062;28;20103;-86
2021/03/05 02:21:55;;;;;;;30.42;16.23;;;2.60;99.90;;;;;;5057156;28;20068;-86
2021/03/05 02:24:43;;;;;;;33.70;16.73;;;2.60;99.90;;;;;;5057510;28;20056;-87
2021/03/05 02:27:22;;;;;;;32.83;17.17;;;2.50;99.90;;;;;;5057338;28;20521;-86
2021/03/05 02:30:13;;;;;;;39.83;18.30;;;2.50;99.90;;;;;;5060349;28;20053;-86
2021/03/05 02:33:04;;;;;;;35.83;17.90;;;2.60;99.90;;;;;;5059396;28;20464;-86
2021/03/05 02:35:33;;;;;;;30.45;17.25;;;2.60;99.90;;;;;;5059091;28;20106;-86
2021/03/05 02:38:02;;;;;;;36.75;17.58;;;2.60;99.90;;;;;;5060288;28;20079;-86
2021/03/05 02:40:32;;;;;;;37.35;18.52;;;2.60;99.90;;;;;;5059395;28;20082;-86
2021/03/05 02:43:04;;;;;;;39.80;18.88;;;2.60;99.90;;;;;;5057546;28;20045;-86
2021/03/05 02:45:34;;;;;;;39.50;18.73;;;2.70;99.90;;;;;;5057512;28;20047;-86
2021/03/05 02:48:10;;;;;;;42.53;19.50;;;2.50;99.90;;;;;;5056464;28;20048;-86
2021/03/05 02:50:40;;;;;;;39.72;19.23;;;2.50;99.90;;;;;;5055806;28;20072;-86
2021/03/05 02:53:11;;;;;;;37.92;18.17;;;2.50;99.90;;;;;;5058471;28;20116;-88
2021/03/05 02:55:37;;;;;;;35.70;17.35;;;2.40;99.90;;;;;;5070507;28;20087;-87
2021/03/05 02:58:06;;;;;;;33.20;16.10;;;2.50;99.90;;;;;;5070061;28;20049;-86
2021/03/05 03:00:34;;;;;;;39.60;17.65;;;2.40;99.90;;;;;;5065063;28;20057;-86
2021/03/05 03:03:02;;;;;;;38.47;17.42;;;2.50;99.90;;;;;;5059987;28;20049;-85
2021/03/05 03:05:30;;;;;;;33.40;15.52;;;2.50;99.90;;;;;;5059652;28;20051;-85
2021/03/05 03:07:58;;;;;;;36.38;16.10;;;2.50;99.90;;;;;;5059672;28;20099;-86
2021/03/05 03:10:28;;;;;;;38.45;16.67;;;2.50;99.90;;;;;;5059518;28;20052;-85
2021/03/05 03:12:58;;;;;;;45.17;17.65;;;2.50;99.90;;;;;;5060648;28;20045;-86
2021/03/05 03:15:27;;;;;;;38.45;17.33;;;2.40;99.90;;;;;;5062701;28;20072;-86
2021/03/05 03:17:57;;;;;;;41.28;17.40;;;2.40;99.90;;;;;;5062908;28;20049;-86
2021/03/05 03:20:25;;;;;;;41.30;18.55;;;2.40;99.90;;;;;;5060488;28;20077;-86
2021/03/05 03:22:53;;;;;;;40.80;17.83;;;2.30;99.90;;;;;;5060224;28;20041;-86
2021/03/05 03:25:19;;;;;;;38.58;17.98;;;2.40;99.90;;;;;;5063377;28;20076;-86
2021/03/05 03:27:46;;;;;;;40.05;17.48;;;2.30;99.90;;;;;;5061920;28;20041;-86
2021/03/05 03:30:14;;;;;;;37.78;17.08;;;2.30;99.90;;;;;;5060410;28;20079;-85
2021/03/05 03:32:43;;;;;;;40.60;17.90;;;2.40;99.90;;;;;;5063462;28;20055;-86
2021/03/05 03:35:12;;;;;;;38.95;17.52;;;2.40;99.90;;;;;;5065120;28;20053;-86
2021/03/05 03:37:39;;;;;;;41.08;18.08;;;2.40;99.90;;;;;;5064940;28;20082;-86
2021/03/05 03:40:08;;;;;;;36.85;17.40;;;2.40;99.90;;;;;;5063713;28;20132;-85
2021/03/05 03:42:34;;;;;;;43.85;18.33;;;2.50;99.90;;;;;;5063686;28;20051;-86
2021/03/05 03:45:06;;;;;;;38.22;17.02;;;2.40;99.90;;;;;;5064308;28;20041;-86
2021/03/05 03:47:33;;;;;;;39.00;17.27;;;2.40;99.90;;;;;;5063772;28;20091;-86
2021/03/05 03:50:01;;;;;;;42.28;17.88;;;2.50;99.90;;;;;;5062935;28;20540;-86
2021/03/05 03:52:38;;;;;;;37.80;17.70;;;2.50;99.90;;;;;;5061772;28;20064;-86
2021/03/05 03:55:08;;;;;;;37.30;16.95;;;2.50;99.90;;;;;;5062182;28;20139;-86
2021/03/05 03:57:40;;;;;;;34.60;16.15;;;2.50;99.90;;;;;;5062242;28;20076;-86
2021/03/05 04:00:07;;;;;;;32.67;15.43;;;2.50;99.90;;;;;;5063267;28;20053;-85
2021/03/05 04:02:34;;;;;;;36.70;15.52;;;2.40;99.90;;;;;;5060945;28;20067;-86
2021/03/05 04:05:03;;;;;;;33.80;16.15;;;2.50;99.90;;;;;;5065350;28;20124;-83
2021/03/05 04:07:31;;;;;;;35.97;16.30;;;2.50;99.90;;;;;;5069353;28;20049;-83
2021/03/05 04:10:01;;;;;;;31.67;16.45;;;2.50;99.90;;;;;;5070015;28;20065;-84
2021/03/05 04:12:28;;;;;;;34.15;15.77;;;2.40;99.90;;;;;;5068600;28;20073;-84
2021/03/05 04:14:56;;;;;;;33.70;15.98;;;2.50;99.90;;;;;;5069188;28;20056;-85
2021/03/05 04:17:22;;;;;;;35.67;16.08;;;2.50;99.90;;;;;;5069076;28;20141;-84
2021/03/05 04:19:52;;;;;;;35.75;15.70;;;2.50;99.90;;;;;;5068017;28;20049;-83
2021/03/05 04:22:20;;;;;;;31.52;15.60;;;2.60;99.90;;;;;;5067870;28;20084;-84
2021/03/05 04:24:47;;;;;;;33.13;15.95;;;2.60;99.90;;;;;;5068455;28;20049;-83
2021/03/05 04:27:13;;;;;;;35.90;15.07;;;2.60;99.90;;;;;;5067629;28;20052;-84
2021/03/05 04:29:39;;;;;;;33.15;15.70;;;2.70;99.90;;;;;;5066791;28;20417;-84
2021/03/05 04:32:06;;;;;;;36.58;15.05;;;2.70;99.90;;;;;;5067861;28;20056;-84
2021/03/05 04:34:33;;;;;;;32.63;14.88;;;2.60;99.90;;;;;;5065835;28;20113;-83
2021/03/05 04:36:59;;;;;;;31.50;14.57;;;2.60;99.90;;;;;;5067530;28;20056;-83
2021/03/05 04:39:26;;;;;;;29.00;14.82;;;2.60;99.90;;;;;;5068316;28;20112;-85
2021/03/05 04:41:53;;;;;;;33.15;14.90;;;2.60;99.90;;;;;;5070126;28;20059;-83
2021/03/05 04:44:19;;;;;;;28.85;14.70;;;2.60;99.90;;;;;;5070681;28;20053;-84
2021/03/05 04:46:46;;;;;;;30.92;15.07;;;2.50;99.90;;;;;;5066121;28;20063;-84
2021/03/05 04:49:13;;;;;;;40.28;15.15;;;2.50;99.90;;;;;;5066383;28;20052;-84
2021/03/05 04:51:39;;;;;;;31.98;14.85;;;2.50;99.90;;;;;;5065088;28;20064;-84
2021/03/05 04:54:05;;;;;;;30.05;14.75;;;2.60;99.90;;;;;;5066361;28;20053;-84
2021/03/05 04:56:33;;;;;;;28.27;15.52;;;2.60;99.90;;;;;;5065054;28;20057;-84
2021/03/05 04:59:00;;;;;;;32.47;15.30;;;2.60;99.90;;;;;;5065848;28;20567;-84
2021/03/05 05:01:27;;;;;;;29.13;14.75;;;2.60;99.90;;;;;;5065259;28;20417;-84
2021/03/05 05:03:53;;;;;;;26.55;13.75;;;2.60;99.90;;;;;;5066727;28;20041;-83
2021/03/05 05:06:20;;;;;;;28.73;13.93;;;2.60;99.90;;;;;;5065978;28;20061;-85
2021/03/05 05:08:47;;;;;;;28.05;12.80;;;2.60;99.90;;;;;;5065416;28;20049;-84
2021/03/05 05:11:13;;;;;;;29.65;14.07;;;2.60;99.90;;;;;;5066659;28;20079;-85
2021/03/05 05:13:40;;;;;;;26.95;11.73;;;2.50;99.90;;;;;;5066307;28;20494;-83
2021/03/05 05:16:06;;;;;;;24.33;11.20;;;2.60;99.90;;;;;;5066604;28;20457;-84
2021/03/05 05:18:33;;;;;;;21.42;10.88;;;2.60;99.90;;;;;;5066334;28;20049;-84
2021/03/05 05:20:59;;;;;;;19.92;11.32;;;2.60;99.90;;;;;;5067001;28;20044;-84
2021/03/05 05:23:25;;;;;;;19.63;10.15;;;2.70;99.90;;;;;;5067030;28;20045;-83
2021/03/05 05:25:52;;;;;;;19.00;10.93;;;2.60;99.90;;;;;;5066614;28;20078;-85
2021/03/05 05:28:18;;;;;;;18.23;9.80;;;2.60;99.90;;;;;;5067334;28;20253;-85
2021/03/05 05:30:44;;;;;;;18.85;10.25;;;2.60;99.90;;;;;;5068287;28;20053;-85
2021/03/05 05:33:10;;;;;;;17.63;10.00;;;2.60;99.90;;;;;;5066952;28;20052;-84
2021/03/05 05:35:37;;;;;;;15.85;9.43;;;2.60;99.90;;;;;;5068504;28;20053;-84
2021/03/05 05:38:03;;;;;;;18.02;10.02;;;2.50;99.90;;;;;;5067106;28;20465;-84
2021/03/05 05:40:30;;;;;;;13.75;8.98;;;2.60;99.90;;;;;;5066607;28;20048;-84
2021/03/05 05:42:56;;;;;;;15.38;9.38;;;2.50;99.90;;;;;;5068042;28;20064;-84
2021/03/05 05:45:23;;;;;;;18.17;8.38;;;2.40;99.90;;;;;;5068381;28;20072;-85
2021/03/05 05:47:52;;;;;;;14.55;9.02;;;2.30;99.90;;;;;;5067484;28;20052;-84
2021/03/05 05:50:19;;;;;;;18.90;9.20;;;2.30;99.90;;;;;;5067963;28;20108;-84
2021/03/05 05:52:46;;;;;;;18.50;9.77;;;2.40;99.90;;;;;;5069505;28;20057;-85
2021/03/05 05:55:14;;;;;;;13.68;7.72;;;2.50;99.90;;;;;;5067519;28;20049;-83
2021/03/05 05:57:43;;;;;;;14.52;7.55;;;2.40;99.90;;;;;;5066107;28;20048;-85
2021/03/05 06:00:09;;;;;;;9.93;7.07;;;2.30;99.90;;;;;;5065733;28;20056;-84
2021/03/05 06:02:36;;;;;;;12.15;7.47;;;2.20;99.90;;;;;;5066784;28;20551;-84
2021/03/05 06:05:04;;;;;;;15.55;8.18;;;2.10;99.90;;;;;;5064503;28;20049;-83
2021/03/05 06:07:31;;;;;;;15.55;8.95;;;2.10;99.90;;;;;;5064033;28;20154;-84
2021/03/05 06:10:05;;;;;;;59.60;27.05;;;2.00;99.90;;;;;;5065523;28;20045;-84
2021/03/05 06:12:32;;;;;;;17.17;10.52;;;2.00;99.90;;;;;;5065022;28;20497;-83
2021/03/05 06:14:59;;;;;;;59.50;30.88;;;2.20;99.90;;;;;;5064628;28;20078;-83
2021/03/05 06:17:42;;;;;;;43.95;26.17;;;2.20;99.90;;;;;;5065463;28;20103;-84
2021/03/05 06:20:09;;;;;;;;;;;2.10;99.90;;;;;;5065357;28;20116;-83
2021/03/05 06:22:35;;;;;;;436.23;152.70;;;2.10;99.90;;;;;;5065119;28;19925;-84
2021/03/05 06:25:03;;;;;;;150.15;53.70;;;2.10;99.90;;;;;;5065370;28;20110;-84
2021/03/05 06:27:31;;;;;;;513.25;186.57;;;2.00;99.90;;;;;;5066351;28;20049;-84
2021/03/05 06:29:57;;;;;;;54.03;19.77;;;2.10;99.90;;;;;;5065208;28;20049;-84
2021/03/05 06:32:37;;;;;;;50.33;19.70;;;2.00;99.90;;;;;;5066493;28;20112;-84
2021/03/05 06:35:04;;;;;;;140.60;63.35;;;2.00;99.90;;;;;;5065097;28;20053;-83
2021/03/05 06:37:45;;;;;;;79.15;40.38;;;2.00;99.90;;;;;;5064987;28;20053;-84
2021/03/05 06:40:27;;;;;;;13.43;8.07;;;2.00;99.90;;;;;;5067449;28;20051;-84
2021/03/05 06:42:56;;;;;;;124.00;53.03;;;2.00;99.90;;;;;;5066714;28;20049;-84
2021/03/05 06:45:35;;;;;;;65.63;24.83;;;1.90;99.90;;;;;;5068109;28;20045;-83
2021/03/05 06:48:07;;;;;;;47.83;21.55;;;1.90;99.90;;;;;;5061011;28;20049;-84
2021/03/05 06:50:37;;;;;;;96.85;40.92;;;1.90;99.90;;;;;;5061754;28;20049;-84
2021/03/05 06:53:23;;;;;;;89.03;35.47;;;1.80;99.90;;;;;;5060706;28;20056;-84
2021/03/05 06:55:50;;;;;;;104.63;50.33;;;1.80;99.90;;;;;;5065290;28;20154;-84
2021/03/05 06:58:18;;;;;;;40.85;21.73;;;1.70;99.90;;;;;;5065301;28;20075;-84
2021/03/05 07:00:45;;;;;;;39.13;20.58;;;1.60;99.90;;;;;;5067331;28;20053;-84
2021/03/05 07:03:23;;;;;;;48.67;28.00;;;1.60;99.90;;;;;;5060082;28;20045;-84
2021/03/05 07:05:55;;;;;;;38.15;22.55;;;1.60;99.90;;;;;;5059073;28;20049;-84
2021/03/05 07:08:44;;;;;;;26.10;14.32;;;1.60;99.90;;;;;;5061301;28;20136;-84
2021/03/05 07:11:31;;;;;;;34.97;17.15;;;1.50;99.90;;;;;;5067040;28;20045;-84
2021/03/05 07:13:57;;;;;;;74.05;41.55;;;1.40;99.90;;;;;;5067085;28;20037;-84
2021/03/05 07:16:25;;;;;;;35.33;19.27;;;1.40;99.90;;;;;;5065942;28;20049;-84
2021/03/05 07:18:52;;;;;;;28.38;15.73;;;1.40;99.90;;;;;;5070570;28;20103;-83
2021/03/05 07:21:20;;;;;;;31.92;16.27;;;1.40;99.90;;;;;;5078019;28;20060;-83
2021/03/05 07:23:48;;;;;;;31.63;15.70;;;1.40;99.90;;;;;;5083293;28;20099;-83
2021/03/05 07:26:16;;;;;;;24.48;14.52;;;1.30;99.90;;;;;;5083886;28;20049;-84
2021/03/05 07:28:45;;;;;;;25.20;13.43;;;1.30;99.90;;;;;;5083018;28;20082;-83
2021/03/05 07:31:16;;;;;;;28.15;15.88;;;1.30;99.90;;;;;;5072762;28;20041;-83
2021/03/05 07:33:51;;;;;;;24.05;13.60;;;1.40;99.90;;;;;;5076803;28;20044;-83
2021/03/05 07:36:18;;;;;;;28.58;14.18;;;1.50;99.90;;;;;;5083715;28;20052;-83
2021/03/05 07:38:50;;;;;;;25.67;13.23;;;1.50;99.90;;;;;;5084284;28;20056;-83
2021/03/05 07:41:21;;;;;;;25.58;13.70;;;1.60;99.90;;;;;;5082564;28;20052;-83
2021/03/05 07:43:49;;;;;;;24.95;13.35;;;1.60;99.90;;;;;;5083997;28;20110;-83
2021/03/05 07:46:16;;;;;;;24.38;14.10;;;1.50;99.90;;;;;;5082599;28;20493;-84
2021/03/05 07:48:47;;;;;;;21.67;12.15;;;1.50;99.90;;;;;;5081440;28;20048;-83
2021/03/05 07:51:15;;;;;;;19.23;12.48;;;1.50;99.90;;;;;;5073047;28;20060;-83
2021/03/05 07:53:55;;;;;;;22.83;13.50;;;1.50;99.90;;;;;;5069633;28;20383;-85
2021/03/05 07:56:54;;;;;;;19.35;11.60;;;1.60;99.90;;;;;;5062951;28;20126;-83
2021/03/05 07:59:39;;;;;;;34.05;20.98;;;1.50;99.90;;;;;;5063860;28;20114;-83
2021/03/05 08:02:11;;;;;;;26.42;16.27;;;1.50;99.90;;;;;;5062271;28;20433;-83
2021/03/05 08:04:58;;;;;;;32.92;18.08;;;1.60;99.90;;;;;;5064635;28;20053;-83
2021/03/05 08:07:32;;;;;;;37.80;18.65;;;1.60;99.90;;;;;;5063034;28;20055;-83
2021/03/05 08:09:59;;;;;;;104.40;51.67;;;1.60;99.90;;;;;;5067622;28;20136;-83
2021/03/05 08:15:08;;;;;;;20.10;11.55;;;1.90;99.90;;;;;;5063344;28;20048;-83
2021/03/05 08:17:40;;;;;;;26.48;14.95;;;2.00;99.90;;;;;;5064071;28;20064;-84
2021/03/05 08:20:08;;;;;;;18.35;11.60;;;2.10;99.90;;;;;;5066339;28;20059;-84
2021/03/05 08:23:03;;;;;;;16.77;10.90;;;2.30;99.90;;;;;;5065535;28;20049;-84
2021/03/05 08:25:32;;;;;;;16.73;10.32;;;2.90;99.90;;;;;;5065645;28;20041;-83
2021/03/05 08:28:00;;;;;;;15.35;8.30;;;3.80;99.90;;;;;;5071158;28;20052;-84
2021/03/05 08:30:33;;;;;;;10.75;7.82;;;4.80;99.90;;;;;;5069997;28;20049;-83
2021/03/05 08:33:03;;;;;;;11.07;7.45;;;6.30;99.90;;;;;;5072809;28;20057;-83
2021/03/05 08:35:29;;;;;;;9.25;6.65;;;7.00;99.90;;;;;;5068476;28;20391;-84
2021/03/05 08:38:01;;;;;;;10.32;6.43;;;7.80;99.90;;;;;;5065203;28;20055;-84
2021/03/05 08:40:31;;;;;;;11.38;7.35;;;8.30;99.90;;;;;;5066388;28;20056;-85
2021/03/05 08:43:27;;;;;;;12.88;8.02;;;8.00;99.90;;;;;;5068856;28;20057;-85
2021/03/05 08:46:05;;;;;;;9.07;8.10;;;6.50;99.90;;;;;;5069500;28;20060;-85
2021/03/05 08:48:42;;;;;;;10.98;8.27;;;5.30;99.90;;;;;;5071220;28;20079;-85
2021/03/05 08:51:14;;;;;;;13.38;8.85;;;4.50;99.90;;;;;;5073064;28;20051;-84
2021/03/05 08:53:53;;;;;;;12.60;8.93;;;3.90;99.90;;;;;;5070258;28;20083;-85
2021/03/05 08:56:27;;;;;;;11.50;8.40;;;3.90;99.90;;;;;;5072067;28;20061;-85
2021/03/05 08:59:04;;;;;;;13.63;9.75;;;3.40;99.90;;;;;;5069776;28;20049;-84
2021/03/05 09:01:41;;;;;;;9.90;8.23;;;3.90;99.90;;;;;;5070008;28;20112;-85
2021/03/05 09:04:19;;;;;;;12.40;8.32;;;4.50;99.90;;;;;;5069148;28;20510;-86
2021/03/05 09:06:53;;;;;;;12.02;7.95;;;4.40;99.90;;;;;;5067901;28;20041;-87
2021/03/05 09:09:23;;;;;;;15.00;8.13;;;4.40;99.90;;;;;;5070042;28;20076;-85
2021/03/05 09:12:12;;;;;;;11.02;8.07;;;4.00;99.90;;;;;;5071608;28;20113;-84
2021/03/05 09:14:46;;;;;;;11.43;7.70;;;3.60;99.90;;;;;;5071211;28;20053;-84
2021/03/05 09:17:14;;;;;;;12.25;8.73;;;3.50;99.90;;;;;;5069813;28;20160;-85
2021/03/05 09:19:47;;;;;;;11.85;8.02;;;3.40;99.90;;;;;;5070932;28;20051;-85
2021/03/05 09:22:18;;;;;;;12.95;7.53;;;3.50;99.90;;;;;;5070624;28;20079;-85
2021/03/05 09:24:59;;;;;;;10.50;7.75;;;3.50;99.90;;;;;;5071517;28;20041;-84
2021/03/05 09:27:27;;;;;;;10.98;6.55;;;3.60;99.90;;;;;;5070427;28;20051;-85
2021/03/05 09:29:55;;;;;;;11.40;7.10;;;4.10;99.90;;;;;;5069721;28;20098;-85
2021/03/05 09:32:22;;;;;;;11.23;7.57;;;4.30;99.90;;;;;;5071524;28;20049;-85
2021/03/05 09:35:00;;;;;;;10.32;7.70;;;4.30;99.90;;;;;;5071854;28;20067;-85
2021/03/05 09:37:29;;;;;;;10.00;7.07;;;4.40;99.90;;;;;;5071573;28;20048;-84
2021/03/05 09:40:01;;;;;;;9.20;7.05;;;4.80;99.90;;;;;;5073299;28;20049;-86
2021/03/05 09:42:50;;;;;;;11.23;7.82;;;4.90;99.90;;;;;;5074563;28;20036;-84
2021/03/05 09:45:43;;;;;;;11.25;7.97;;;5.00;99.90;;;;;;5073176;28;20079;-84
2021/03/05 09:48:12;;;;;;;9.63;6.95;;;5.10;99.90;;;;;;5074837;28;20068;-86
2021/03/05 09:50:39;;;;;;;10.23;7.97;;;5.00;99.90;;;;;;5074326;28;20052;-84
2021/03/05 09:53:26;;;;;;;11.52;8.27;;;4.80;99.90;;;;;;5071289;28;20045;-84
2021/03/05 09:55:54;;;;;;;8.75;7.22;;;4.40;99.90;;;;;;5072920;28;20166;-84
2021/03/05 09:58:21;;;;;;;11.20;6.93;;;3.90;99.90;;;;;;5072608;28;20052;-84
2021/03/05 10:00:48;;;;;;;8.70;6.85;;;3.70;99.90;;;;;;5071862;28;20049;-85
2021/03/05 10:03:16;;;;;;;47.08;27.60;;;3.50;99.90;;;;;;5072093;28;20072;-85
2021/03/05 10:05:44;;;;;;;8.43;5.45;;;4.50;99.90;;;;;;5067690;28;20088;-85
2021/03/05 10:08:13;;;;;;;6.97;5.28;;;6.40;99.90;;;;;;5068592;28;20045;-85
2021/03/05 10:10:57;;;;;;;6.88;4.88;;;7.70;99.90;;;;;;5068617;28;20083;-85
2021/03/05 10:13:41;;;;;;;7.45;4.20;;;8.00;94.70;;;;;;5070720;28;20106;-85
2021/03/05 10:16:24;;;;;;;3.97;3.58;;;8.10;91.20;;;;;;5069033;28;20067;-85
2021/03/05 10:18:58;;;;;;;4.53;3.33;;;8.80;93.10;;;;;;5068692;28;20049;-85
2021/03/05 10:21:25;;;;;;;3.55;3.22;;;10.30;90.50;;;;;;5069790;28;20102;-85
2021/03/05 10:23:52;;;;;;;3.90;3.53;;;10.80;78.30;;;;;;5069465;28;20049;-85
2021/03/05 10:26:25;;;;;;;3.75;3.35;;;10.70;82.50;;;;;;5067984;28;20068;-85
2021/03/05 10:29:01;;;;;;;3.60;3.03;;;10.20;76.80;;;;;;5072109;28;20075;-85
2021/03/05 10:31:47;;;;;;;3.55;2.63;;;10.20;77.60;;;;;;5069612;28;20105;-84
2021/03/05 10:34:22;;;;;;;5.75;2.72;;;9.90;82.30;;;;;;5068910;28;20537;-84
2021/03/05 10:36:50;;;;;;;8.30;3.08;;;9.80;75.80;;;;;;5069652;28;20051;-84
2021/03/05 10:39:17;;;;;;;3.20;2.22;;;9.60;79.70;;;;;;5069608;28;20063;-84
2021/03/05 10:41:51;;;;;;;2.30;2.10;;;10.10;77.70;;;;;;5066908;28;20140;-85
2021/03/05 10:44:17;;;;;;;3.50;1.95;;;10.60;73.20;;;;;;5067898;28;20071;-85
2021/03/05 10:46:47;;;;;;;2.13;1.80;;;11.40;68.00;;;;;;5067586;28;20068;-85
2021/03/05 10:49:14;;;;;;;3.58;2.03;;;10.80;69.70;;;;;;5065723;28;20044;-84
2021/03/05 10:51:40;;;;;;;2.33;1.80;;;10.40;73.00;;;;;;5070919;28;20047;-85
2021/03/05 10:54:06;;;;;;;3.38;1.98;;;10.70;70.20;;;;;;5068569;28;20049;-85
2021/03/05 10:56:34;;;;;;;6.55;2.00;;;10.60;69.30;;;;;;5067021;28;20079;-85
2021/03/05 10:59:01;;;;;;;4.75;1.98;;;10.20;70.10;;;;;;5064916;28;20053;-86
2021/03/05 11:01:27;;;;;;;2.17;1.50;;;9.80;68.20;;;;;;5066682;28;20053;-85
2021/03/05 11:03:54;;;;;;;5.20;2.35;;;9.40;67.70;;;;;;5068337;28;20052;-85
2021/03/05 11:06:20;;;;;;;2.47;1.75;;;9.70;67.90;;;;;;5066434;28;20055;-83
2021/03/05 11:08:46;;;;;;;5.28;1.90;;;9.60;71.80;;;;;;5067369;28;20053;-84
2021/03/05 11:11:13;;;;;;;5.25;1.90;;;10.70;67.10;;;;;;5066124;28;20152;-84
2021/03/05 11:13:50;;;;;;;2.00;1.80;;;10.50;66.80;;;;;;5067023;28;20052;-84
2021/03/05 11:16:17;;;;;;;2.20;1.88;;;10.70;61.50;;;;;;5065423;28;20075;-85
2021/03/05 11:18:43;;;;;;;2.92;1.67;;;9.80;65.50;;;;;;5064730;28;20082;-84
2021/03/05 11:21:09;;;;;;;2.85;1.80;;;10.10;63.40;;;;;;5063484;28;20057;-84
2021/03/05 11:23:36;;;;;;;3.30;1.98;;;9.80;61.40;;;;;;5063076;28;20045;-84
2021/03/05 11:26:02;;;;;;;3.72;2.40;;;9.30;63.80;;;;;;5063144;28;20107;-85
2021/03/05 11:28:28;;;;;;;3.80;2.25;;;7.90;66.10;;;;;;5062821;28;20049;-84
2021/03/05 11:30:55;;;;;;;19.88;3.45;;;6.80;68.60;;;;;;5063735;28;20091;-84
2021/03/05 11:33:22;;;;;;;2.30;1.40;;;6.80;74.00;;;;;;5063399;28;20049;-85
2021/03/05 11:35:49;;;;;;;4.55;1.55;;;7.20;70.60;;;;;;5066391;28;20549;-84
2021/03/05 11:38:16;;;;;;;1.73;1.60;;;7.90;70.80;;;;;;5064465;28;20059;-85
2021/03/05 11:40:49;;;;;;;3.33;1.50;;;9.40;71.10;;;;;;5071223;28;20057;-85
2021/03/05 11:43:15;;;;;;;1.70;1.52;;;10.50;66.10;;;;;;5063158;28;20049;-84
2021/03/05 11:45:43;;;;;;;3.75;1.58;;;10.90;63.20;;;;;;5061772;28;20045;-85
2021/03/05 11:48:10;;;;;;;3.05;1.38;;;11.40;60.80;;;;;;5063590;28;20399;-84
2021/03/05 11:50:36;;;;;;;4.70;1.92;;;12.00;58.60;;;;;;5062904;28;20045;-85
2021/03/05 11:53:02;;;;;;;2.15;1.60;;;11.80;55.70;;;;;;5064874;28;20060;-85
2021/03/05 11:55:34;;;;;;;2.70;1.73;;;10.80;59.40;;;;;;5059120;28;20155;-85
2021/03/05 11:58:01;;;;;;;2.97;1.35;;;10.70;58.60;;;;;;5058973;28;20457;-84
2021/03/05 12:00:29;;;;;;;3.88;1.52;;;9.80;60.40;;;;;;5060232;28;20449;-84
2021/03/05 12:02:55;;;;;;;8.15;1.80;;;8.90;59.80;;;;;;5060536;28;20060;-86
2021/03/05 12:05:23;;;;;;;2.30;1.48;;;8.60;62.70;;;;;;5059294;28;20041;-85
2021/03/05 12:07:49;;;;;;;3.92;2.33;;;8.00;63.80;;;;;;5058673;28;20095;-85
2021/03/05 12:10:17;;;;;;;4.35;1.80;;;7.70;66.10;;;;;;5057836;28;20387;-85
2021/03/05 12:12:43;;;;;;;7.93;2.25;;;7.20;69.40;;;;;;5057933;28;20056;-85
2021/03/05 12:15:10;;;;;;;4.82;1.40;;;6.70;70.90;;;;;;5057510;28;20049;-85
2021/03/05 12:17:37;;;;;;;5.80;2.20;;;6.10;69.70;;;;;;5060308;28;20048;-85
2021/03/05 12:20:05;;;;;;;4.50;1.65;;;5.60;73.40;;;;;;5062493;28;20056;-85
2021/03/05 12:22:32;;;;;;;1.58;1.27;;;5.40;73.20;;;;;;5069214;28;20041;-86
2021/03/05 12:24:58;;;;;;;13.05;2.40;;;5.30;72.00;;;;;;5068413;28;20163;-85
2021/03/05 12:27:25;;;;;;;1.50;1.27;;;6.00;75.00;;;;;;5071006;28;20448;-86
2021/03/05 12:29:51;;;;;;;4.07;1.55;;;7.30;67.70;;;;;;5070460;28;20498;-86
2021/03/05 12:32:18;;;;;;;1.83;1.48;;;8.00;64.40;;;;;;5069404;28;20048;-85
2021/03/05 12:34:46;;;;;;;3.60;2.33;;;7.60;65.00;;;;;;5073427;28;20494;-85
2021/03/05 12:37:15;;;;;;;8.18;2.13;;;7.40;70.20;;;;;;5063512;28;20494;-85
2021/03/05 12:39:42;;;;;;;6.13;2.70;;;6.90;68.40;;;;;;5070222;28;20053;-85
2021/03/05 12:42:08;;;;;;;4.43;2.85;;;6.90;70.20;;;;;;5065557;28;20045;-85
2021/03/05 12:44:35;;;;;;;2.10;1.73;;;6.40;69.10;;;;;;5066232;28;20041;-85
2021/03/05 12:47:02;;;;;;;2.72;1.70;;;6.20;71.30;;;;;;5067310;28;20064;-85
2021/03/05 12:49:33;;;;;;;30.85;21.75;;;7.20;68.50;;;;;;5064968;28;20114;-85
2021/03/05 12:52:00;;;;;;;2.35;1.40;;;8.10;65.10;;;;;;5065467;28;20132;-84
2021/03/05 12:54:26;;;;;;;62.00;40.35;;;9.60;64.30;;;;;;5065078;28;20073;-86
2021/03/05 12:56:53;;;;;;;65.82;45.40;;;10.00;61.80;;;;;;5069657;28;20076;-85
2021/03/05 12:59:19;;;;;;;60.05;33.80;;;9.20;60.40;;;;;;5067573;28;20082;-85